Salmon Valley, Canada
Current Conditions -  °F | °C
As of 8:52 AM on Saturday 22 Nov 2014 (Local Time) from CYXS Reporting Station
Unknown Precip Unknown Precip  
Wind Chill: 26°   Ceiling: 4200
Heat Index: 34°   Visibility: 9mi
Dew Point: 32°   Wind: 10mph
Humidity: 93%   Direction: 230°SW
Pressure: 29.37"   Gusts: NA
Location:  54.09°N, 122.69°W
Report Text: CYXS 221652Z AUTO 23009KT 9SM UP FEW017 SCT024 OVC042 01/M00 A2937 RMK SLP971
Loading
Personal Weather Stations






























Interactive Weather Map New forecast layout! Learn more

10-Day Weather Forecast

Advertisements
Track Severe Weather on mobile